Home > Products > Valid Products > TAF

000
FTUS44 KMAF 251700
TAFMAF
TAF
KMAF 251720Z 2518/2618 19009KT P6SM SKC=



000
FTUS44 KMAF 251700
TAFMAF
TAF
KMAF 251720Z 2518/2618 19009KT P6SM SKC=



000
FTUS44 KMAF 251100
TAFMAF
TAF
KMAF 251134Z 2512/2612 19006KT P6SM SKC
      TEMPO 2512/2514 BKN003
     FM251500 20010KT P6SM SKC=



000
FTUS44 KMAF 251100
TAFMAF
TAF
KMAF 251134Z 2512/2612 19006KT P6SM SKC
      TEMPO 2512/2514 BKN003
     FM251500 20010KT P6SM SKC=



000
FTUS44 KMAF 251000 AAA
TAFMAF
TAF AMD
KMAF 251008Z 2510/2606 19006KT P6SM SKC
      TEMPO 2512/2514 4SM BR BKN003
     FM251500 20010KT P6SM SKC=



000
FTUS44 KMAF 250900 AAA
TAFMAF
TAF AMD
KMAF 250926Z 2509/2606 18006KT P6SM SKC
     FM251100 19006KT P6SM SCT003
      TEMPO 2511/2514 3SM BR BKN003
     FM251500 20010KT P6SM SKC=



000
FTUS44 KMAF 250500
TAFMAF
TAF
KMAF 250530Z 2506/2606 18006KT P6SM SKC
     FM251000 19006KT 4SM BR BKN003
      TEMPO 2511/2514 1SM BR OVC001
     FM251500 20010KT P6SM SKC=



000
FTUS44 KMAF 242300
TAFMAF
TAF
KMAF 242328Z 2500/2524 18006KT P6SM SKC
     FM251000 19006KT 4SM BR FEW005
      TEMPO 2510/2514 1/4SM FG OVC001
     FM251400 19010KT P6SM SKC=



000
FTUS44 KMAF 241700
TAFMAF
TAF
KMAF 241720Z 2418/2518 21010KT P6SM SKC=



000
FTUS44 KMAF 241400 AAD
TAFMAF
TAF AMD
KMAF 241455Z 2415/2512 19008KT P6SM SKC=



000
FTUS44 KMAF 241300 AAC
TAFMAF
TAF AMD
KMAF 241350Z 2414/2512 20005KT 5SM BR BKN005
      TEMPO 2414/2415 2SM BR BKN003
     FM241500 19008KT P6SM SKC=



000
FTUS44 KMAF 241300 AAB
TAFMAF
TAF AMD
KMAF 241320Z 2413/2512 20005KT 1/4SM FG VV002
      TEMPO 2413/2416 2SM BR OVC003
     FM241600 19008KT P6SM SKC=



000
FTUS44 KMAF 241100 AAA
TAFMAF
TAF AMD
KMAF 241134Z 2412/2512 20006KT 1/2SM FG SKC
      TEMPO 2412/2415 1/4SM FG OVC001
     FM241700 19008KT P6SM SKC=



000
FTUS44 KMAF 241100
TAFMAF
TAF
KMAF 241120Z 2412/2512 20006KT 4SM BR SKC
      TEMPO 2412/2415 1SM BR OVC001
     FM241700 19008KT P6SM SKC=



000
FTUS44 KMAF 241000 AAB
TAFMAF
TAF AMD
KMAF 241037Z 2411/2506 20006KT 4SM BR SKC
      TEMPO 2411/2415 1SM BR OVC001
     FM241700 19008KT P6SM SKC=



000
FTUS44 KMAF 240900 AAA
TAFMAF
TAF AMD
KMAF 240958Z 2410/2506 19006KT 6SM BR SKC
      TEMPO 2411/2415 1SM BR OVC001
     FM241700 19008KT P6SM SKC=



000
FTUS44 KMAF 240900 AAA
TAFMAF
TAF AMD
KMAF 240958Z 2410/2506 19006KT 6SM BR SKC
      TEMPO 2411/2415 1SM BR OVC001
     FM241700 19008KT P6SM SKC=



000
FTUS44 KMAF 240900 AAA
TAFMAF
TAF AMD
KMAF 240908Z 2409/2506 19004KT P6SM SKC
     FM241000 17004KT 3SM BR OVC005
      TEMPO 2411/2415 1/4SM FG OVC001
     FM241700 19008KT P6SM SKC=



000
FTUS44 KMAF 240500
TAFMAF
TAF
KMAF 240527Z 2406/2506 17004KT P6SM SKC
     FM240900 17004KT 3SM BR OVC005
      TEMPO 2411/2415 1/4SM FG OVC001
     FM241700 19008KT P6SM SKC=



000
FTUS44 KMAF 232300
TAFMAF
TAF
KMAF 232322Z 2400/2424 17004KT P6SM SKC
     FM240900 17004KT 3SM BR OVC005
      TEMPO 2411/2415 1/4SM FG OVC001
     FM241700 18008KT P6SM SKC=



000
FTUS44 KMAF 231700
TAFMAF
TAF
KMAF 231720Z 2318/2418 VRB05KT P6SM FEW040
     FM240000 18005KT P6SM SKC=



000
FTUS44 KMAF 231600 AAA
TAFMAF
TAF AMD
KMAF 231615Z 2316/2412 20005KT P6SM OVC005
     FM231700 21005KT P6SM FEW040 FEW250
     FM240000 18005KT P6SM SKC=



000
FTUS44 KMAF 231600 AAA
TAFMAF
TAF AMD
KMAF 231615Z 2316/2412 20005KT P6SM OVC005
     FM231700 21005KT P6SM FEW040 FEW250
     FM240000 18005KT P6SM SKC=



000
FTUS44 KMAF 231500 AAC
TAFMAF
TAF AMD
KMAF 231516Z 2315/2412 22005KT 5SM BR OVC004
     FM231600 21005KT P6SM FEW250
     FM231900 20005KT P6SM SCT050 SCT250
     FM240000 18005KT P6SM SKC=



000
FTUS44 KMAF 231300 AAB
TAFMAF
TAF AMD
KMAF 231318Z 2313/2412 18008KT 6SM BR OVC003
      TEMPO 2313/2315 5SM BR
     FM231700 21005KT P6SM FEW250
     FM231900 20005KT P6SM SCT050 SCT250
     FM240000 18005KT P6SM SKC=



000
FTUS44 KMAF 231200 AAA
TAFMAF
TAF AMD
KMAF 231221Z 2312/2412 18008KT 3SM BR OVC002
      TEMPO 2312/2315 1/4SM FG
     FM231700 21005KT P6SM FEW250
     FM231900 20005KT P6SM SCT050 SCT250
     FM240000 18005KT P6SM SKC=



000
FTUS44 KMAF 231100
TAFMAF
TAF
KMAF 231124Z 2312/2412 17007KT 1/4SM FG OVC002
     FM231700 21005KT P6SM FEW250
     FM231900 20005KT P6SM SCT050 SCT250
     FM240000 18005KT P6SM SKC=



000
FTUS44 KMAF 231100 AAC
TAFMAF
TAF AMD
KMAF 231105Z 2311/2406 17007KT 1/4SM FG OVC002
     FM231700 21005KT P6SM FEW250
     FM231900 20005KT P6SM SCT050 SCT250
     FM240000 18005KT P6SM SKC=



000
FTUS44 KMAF 231000 AAB
TAFMAF
TAF AMD
KMAF 231041Z 2311/2406 17007KT 1SM BR SCT003
     FM231700 21005KT P6SM FEW250
     FM231900 20005KT P6SM SCT050 SCT250
     FM240000 18005KT P6SM SKC=



000
FTUS44 KMAF 231000 AAA
TAFMAF
TAF AMD
KMAF 231034Z 2311/2406 17007KT 3SM BR SCT010
     FM231700 21005KT P6SM FEW250
     FM231900 20005KT P6SM SCT050 SCT250
     FM240000 18005KT P6SM SKC=



000
FTUS44 KMAF 230800 AAA
TAFMAF
TAF AMD
KMAF 230804Z 2308/2406 16007KT P6SM SKC
     FM231200 17006KT 3SM BR BKN010
     FM231500 20007KT P6SM BKN035
     FM231900 19005KT P6SM SCT050 SCT250
     FM240000 18005KT P6SM SKC=



000
FTUS44 KMAF 230800 AAA
TAFMAF
TAF AMD
KMAF 230804Z 2308/2406 16007KT P6SM SKC
     FM231200 17006KT 3SM BR BKN010
     FM231500 20007KT P6SM BKN035
     FM231900 19005KT P6SM SCT050 SCT250
     FM240000 18005KT P6SM SKC=



000
FTUS44 KMAF 230500
TAFMAF
TAF
KMAF 230521Z 2306/2406 18007KT P6SM SKC
     FM231200 17006KT 3SM BR BKN010
     FM231500 19006KT P6SM SCT045 SCT250
     FM240000 18005KT P6SM SKC=



000
FTUS44 KMAF 222300
TAFMAF
TAF
KMAF 222320Z 2300/2324 17010KT P6SM -SHRA FEW020 BKN040
     FM230400 18006KT P6SM FEW050 SCT100=



000
FTUS44 KMAF 222100 AAA
TAFMAF
TAF AMD
KMAF 222132Z 2222/2318 19010KT P6SM -SHRA FEW020 BKN040
     FM230200 17006KT P6SM SCT050 BKN100
     FM231100 VRB04KT 5SM BR SKC
      TEMPO 2311/2314 2SM BR
     FM231400 20007KT P6SM FEW250=



    US Dept of Commerce
    National Oceanic and Atmospheric Administration
    National Weather Service
    1325 East West Highway
    Silver Spring, MD 20910
    Page Author: NWS Internet Services Team
Disclaimer
Information Quality
Credits
Glossary
Privacy Policy
Freedom of Information Act (FOIA)
About Us
Career Opportunities